sensor_id;sensor_type;location;lat;lon;timestamp;P1;durP1;ratioP1;P2;durP2;ratioP2
1715;SDS011;855;48.824;9.220;2024-01-15T00:02:00;26.70;;;8.80;;
1715;SDS011;855;48.824;9.220;2024-01-15T00:04:28;31.43;;;10.40;;
1715;SDS011;855;48.824;9.220;2024-01-15T00:06:55;30.57;;;8.87;;
1715;SDS011;855;48.824;9.220;2024-01-15T00:09:22;36.97;;;10.33;;
1715;SDS011;855;48.824;9.220;2024-01-15T00:11:49;27.20;;;10.10;;
1715;SDS011;855;48.824;9.220;2024-01-15T00:14:15;28.03;;;8.30;;
1715;SDS011;855;48.824;9.220;2024-01-15T00:16:45;28.87;;;8.90;;
1715;SDS011;855;48.824;9.220;2024-01-15T00:19:13;39.43;;;8.43;;
1715;SDS011;855;48.824;9.220;2024-01-15T00:21:40;25.70;;;8.40;;
1715;SDS011;855;48.824;9.220;2024-01-15T00:24:07;30.33;;;9.63;;
1715;SDS011;855;48.824;9.220;2024-01-15T00:26:34;24.37;;;8.03;;
1715;SDS011;855;48.824;9.220;2024-01-15T00:29:02;30.37;;;8.83;;
1715;SDS011;855;48.824;9.220;2024-01-15T00:31:29;26.60;;;8.10;;
1715;SDS011;855;48.824;9.220;2024-01-15T00:33:56;26.17;;;7.80;;
1715;SDS011;855;48.824;9.220;2024-01-15T00:36:25;32.80;;;9.77;;
1715;SDS011;855;48.824;9.220;2024-01-15T00:38:52;34.60;;;9.27;;
1715;SDS011;855;48.824;9.220;2024-01-15T00:41:19;27.63;;;8.53;;
1715;SDS011;855;48.824;9.220;2024-01-15T00:43:47;27.50;;;9.60;;
1715;SDS011;855;48.824;9.220;2024-01-15T00:46:15;27.50;;;9.00;;
1715;SDS011;855;48.824;9.220;2024-01-15T00:48:42;29.27;;;9.90;;
1715;SDS011;855;48.824;9.220;2024-01-15T00:51:09;23.50;;;8.23;;
1715;SDS011;855;48.824;9.220;2024-01-15T00:53:38;29.73;;;10.07;;
1715;SDS011;855;48.824;9.220;2024-01-15T00:56:06;17.03;;;8.07;;
1715;SDS011;855;48.824;9.220;2024-01-15T00:58:33;35.63;;;9.23;;
1715;SDS011;855;48.824;9.220;2024-01-15T01:01:00;29.50;;;9.50;;
1715;SDS011;855;48.824;9.220;2024-01-15T01:03:27;27.10;;;8.93;;
1715;SDS011;855;48.824;9.220;2024-01-15T01:05:54;28.23;;;8.70;;
1715;SDS011;855;48.824;9.220;2024-01-15T01:08:22;28.87;;;9.50;;
1715;SDS011;855;48.824;9.220;2024-01-15T01:10:50;32.27;;;8.47;;
1715;SDS011;855;48.824;9.220;2024-01-15T01:13:17;26.53;;;9.10;;
1715;SDS011;855;48.824;9.220;2024-01-15T01:15:44;32.40;;;9.30;;
1715;SDS011;855;48.824;9.220;2024-01-15T01:18:12;32.73;;;9.37;;
1715;SDS011;855;48.824;9.220;2024-01-15T01:20:39;21.30;;;7.73;;
1715;SDS011;855;48.824;9.220;2024-01-15T01:23:06;21.63;;;8.93;;
1715;SDS011;855;48.824;9.220;2024-01-15T01:25:33;37.30;;;9.70;;
1715;SDS011;855;48.824;9.220;2024-01-15T01:28:01;24.93;;;8.37;;
1715;SDS011;855;48.824;9.220;2024-01-15T01:30:29;23.63;;;8.73;;
1715;SDS011;855;48.824;9.220;2024-01-15T01:32:56;38.70;;;11.53;;
1715;SDS011;855;48.824;9.220;2024-01-15T01:35:23;22.07;;;7.33;;
1715;SDS011;855;48.824;9.220;2024-01-15T01:37:50;22.43;;;7.77;;
1715;SDS011;855;48.824;9.220;2024-01-15T01:40:17;26.20;;;7.27;;
1715;SDS011;855;48.824;9.220;2024-01-15T01:42:44;19.13;;;7.70;;
1715;SDS011;855;48.824;9.220;2024-01-15T01:45:12;26.67;;;9.17;;
1715;SDS011;855;48.824;9.220;2024-01-15T01:47:39;22.20;;;7.70;;
1715;SDS011;855;48.824;9.220;2024-01-15T01:50:06;24.60;;;7.53;;
1715;SDS011;855;48.824;9.220;2024-01-15T01:52:34;26.83;;;8.67;;
1715;SDS011;855;48.824;9.220;2024-01-15T01:55:02;21.00;;;6.60;;
1715;SDS011;855;48.824;9.220;2024-01-15T01:57:30;24.30;;;7.17;;
1715;SDS011;855;48.824;9.220;2024-01-15T01:59:59;22.63;;;8.20;;
1715;SDS011;855;48.824;9.220;2024-01-15T02:02:30;24.73;;;8.10;;
1715;SDS011;855;48.824;9.220;2024-01-15T02:04:57;30.83;;;9.40;;
1715;SDS011;855;48.824;9.220;2024-01-15T02:07:24;22.97;;;6.90;;
1715;SDS011;855;48.824;9.220;2024-01-15T02:09:52;22.43;;;7.60;;
1715;SDS011;855;48.824;9.220;2024-01-15T02:12:19;14.90;;;6.50;;
1715;SDS011;855;48.824;9.220;2024-01-15T02:14:46;24.80;;;7.30;;
1715;SDS011;855;48.824;9.220;2024-01-15T02:17:13;19.83;;;7.10;;
1715;SDS011;855;48.824;9.220;2024-01-15T02:19:42;28.80;;;7.60;;
1715;SDS011;855;48.824;9.220;2024-01-15T02:22:09;24.33;;;8.20;;
1715;SDS011;855;48.824;9.220;2024-01-15T02:24:37;18.70;;;6.30;;
1715;SDS011;855;48.824;9.220;2024-01-15T02:27:04;14.40;;;5.87;;
1715;SDS011;855;48.824;9.220;2024-01-15T02:29:31;22.47;;;6.53;;
1715;SDS011;855;48.824;9.220;2024-01-15T02:31:58;16.10;;;5.60;;
1715;SDS011;855;48.824;9.220;2024-01-15T02:34:26;17.07;;;6.77;;
1715;SDS011;855;48.824;9.220;2024-01-15T02:36:57;22.07;;;7.03;;
1715;SDS011;855;48.824;9.220;2024-01-15T02:39:24;18.60;;;7.10;;
1715;SDS011;855;48.824;9.220;2024-01-15T02:41:52;20.10;;;6.80;;
1715;SDS011;855;48.824;9.220;2024-01-15T02:44:21;19.40;;;6.70;;
1715;SDS011;855;48.824;9.220;2024-01-15T02:46:48;22.73;;;7.37;;
1715;SDS011;855;48.824;9.220;2024-01-15T02:49:15;21.87;;;7.37;;
1715;SDS011;855;48.824;9.220;2024-01-15T02:51:42;22.40;;;6.13;;
1715;SDS011;855;48.824;9.220;2024-01-15T02:54:09;23.30;;;8.50;;
1715;SDS011;855;48.824;9.220;2024-01-15T02:56:36;22.80;;;8.53;;
1715;SDS011;855;48.824;9.220;2024-01-15T02:59:04;22.53;;;6.80;;
1715;SDS011;855;48.824;9.220;2024-01-15T03:01:31;22.50;;;8.30;;
1715;SDS011;855;48.824;9.220;2024-01-15T03:03:58;16.97;;;5.93;;
1715;SDS011;855;48.824;9.220;2024-01-15T03:06:25;24.73;;;7.27;;
1715;SDS011;855;48.824;9.220;2024-01-15T03:08:52;19.03;;;7.60;;
1715;SDS011;855;48.824;9.220;2024-01-15T03:11:20;24.33;;;6.97;;
1715;SDS011;855;48.824;9.220;2024-01-15T03:13:47;24.73;;;7.37;;
1715;SDS011;855;48.824;9.220;2024-01-15T03:16:16;23.93;;;7.43;;
1715;SDS011;855;48.824;9.220;2024-01-15T03:18:45;21.97;;;8.17;;
1715;SDS011;855;48.824;9.220;2024-01-15T03:21:12;30.50;;;7.83;;
1715;SDS011;855;48.824;9.220;2024-01-15T03:23:38;18.87;;;6.40;;
1715;SDS011;855;48.824;9.220;2024-01-15T03:26:05;16.53;;;6.70;;
1715;SDS011;855;48.824;9.220;2024-01-15T03:28:32;15.63;;;5.77;;
1715;SDS011;855;48.824;9.220;2024-01-15T03:30:59;25.17;;;7.73;;
1715;SDS011;855;48.824;9.220;2024-01-15T03:33:28;22.17;;;7.20;;
1715;SDS011;855;48.824;9.220;2024-01-15T03:35:55;23.63;;;7.43;;
1715;SDS011;855;48.824;9.220;2024-01-15T03:38:23;19.40;;;7.80;;
1715;SDS011;855;48.824;9.220;2024-01-15T03:40:50;12.00;;;5.60;;
1715;SDS011;855;48.824;9.220;2024-01-15T03:43:18;22.87;;;7.47;;
1715;SDS011;855;48.824;9.220;2024-01-15T03:45:45;16.40;;;5.40;;
1715;SDS011;855;48.824;9.220;2024-01-15T03:48:12;15.37;;;6.10;;
1715;SDS011;855;48.824;9.220;2024-01-15T03:50:40;20.50;;;6.83;;
1715;SDS011;855;48.824;9.220;2024-01-15T03:53:07;19.30;;;6.27;;
1715;SDS011;855;48.824;9.220;2024-01-15T03:55:34;19.17;;;6.60;;
1715;SDS011;855;48.824;9.220;2024-01-15T03:58:01;25.53;;;7.47;;
1715;SDS011;855;48.824;9.220;2024-01-15T04:00:28;19.10;;;6.43;;
1715;SDS011;855;48.824;9.220;2024-01-15T04:02:55;17.03;;;7.10;;
1715;SDS011;855;48.824;9.220;2024-01-15T04:05:22;24.73;;;6.70;;
1715;SDS011;855;48.824;9.220;2024-01-15T04:07:51;15.30;;;6.50;;
1715;SDS011;855;48.824;9.220;2024-01-15T04:10:18;16.30;;;6.50;;
1715;SDS011;855;48.824;9.220;2024-01-15T04:12:45;17.80;;;5.40;;
1715;SDS011;855;48.824;9.220;2024-01-15T04:15:12;14.30;;;5.77;;
1715;SDS011;855;48.824;9.220;2024-01-15T04:17:39;22.93;;;7.17;;
1715;SDS011;855;48.824;9.220;2024-01-15T04:20:07;16.17;;;5.60;;
1715;SDS011;855;48.824;9.220;2024-01-15T04:22:35;23.27;;;7.47;;
1715;SDS011;855;48.824;9.220;2024-01-15T04:25:03;11.37;;;5.77;;
1715;SDS011;855;48.824;9.220;2024-01-15T04:27:31;23.37;;;6.73;;
1715;SDS011;855;48.824;9.220;2024-01-15T04:29:58;8.80;;;4.43;;
1715;SDS011;855;48.824;9.220;2024-01-15T04:32:25;46.43;;;9.73;;
1715;SDS011;855;48.824;9.220;2024-01-15T04:34:52;12.33;;;5.83;;
1715;SDS011;855;48.824;9.220;2024-01-15T04:37:19;15.07;;;5.27;;
1715;SDS011;855;48.824;9.220;2024-01-15T04:39:46;17.90;;;5.18;;
1715;SDS011;855;48.824;9.220;2024-01-15T04:42:15;15.90;;;5.80;;
1715;SDS011;855;48.824;9.220;2024-01-15T04:44:41;19.27;;;6.63;;
1715;SDS011;855;48.824;9.220;2024-01-15T04:47:09;16.07;;;5.97;;
1715;SDS011;855;48.824;9.220;2024-01-15T04:49:36;23.30;;;7.30;;
1715;SDS011;855;48.824;9.220;2024-01-15T04:52:03;23.70;;;6.53;;
1715;SDS011;855;48.824;9.220;2024-01-15T04:54:31;28.10;;;8.57;;
1715;SDS011;855;48.824;9.220;2024-01-15T04:56:58;16.70;;;6.70;;
1715;SDS011;855;48.824;9.220;2024-01-15T04:59:26;16.80;;;4.87;;
1715;SDS011;855;48.824;9.220;2024-01-15T05:01:54;15.47;;;5.70;;
1715;SDS011;855;48.824;9.220;2024-01-15T05:04:23;15.70;;;5.70;;
1715;SDS011;855;48.824;9.220;2024-01-15T05:06:50;15.27;;;5.83;;
1715;SDS011;855;48.824;9.220;2024-01-15T05:09:17;14.13;;;4.57;;
1715;SDS011;855;48.824;9.220;2024-01-15T05:11:44;17.58;;;6.03;;
1715;SDS011;855;48.824;9.220;2024-01-15T05:14:11;18.67;;;6.27;;
1715;SDS011;855;48.824;9.220;2024-01-15T05:16:40;18.70;;;5.20;;
1715;SDS011;855;48.824;9.220;2024-01-15T05:19:13;18.13;;;5.97;;
1715;SDS011;855;48.824;9.220;2024-01-15T05:21:40;16.60;;;5.20;;
1715;SDS011;855;48.824;9.220;2024-01-15T05:24:07;13.03;;;5.57;;
1715;SDS011;855;48.824;9.220;2024-01-15T05:26:34;10.70;;;4.60;;
1715;SDS011;855;48.824;9.220;2024-01-15T05:29:01;16.13;;;5.90;;
1715;SDS011;855;48.824;9.220;2024-01-15T05:31:29;19.43;;;5.97;;
1715;SDS011;855;48.824;9.220;2024-01-15T05:33:57;15.30;;;5.57;;
1715;SDS011;855;48.824;9.220;2024-01-15T05:36:25;19.60;;;5.83;;
1715;SDS011;855;48.824;9.220;2024-01-15T05:38:52;20.23;;;5.43;;
1715;SDS011;855;48.824;9.220;2024-01-15T05:41:20;12.27;;;5.27;;
1715;SDS011;855;48.824;9.220;2024-01-15T05:43:47;13.60;;;6.73;;
1715;SDS011;855;48.824;9.220;2024-01-15T05:46:16;15.50;;;5.63;;
1715;SDS011;855;48.824;9.220;2024-01-15T05:48:44;24.17;;;7.60;;
1715;SDS011;855;48.824;9.220;2024-01-15T05:51:12;15.40;;;6.40;;
1715;SDS011;855;48.824;9.220;2024-01-15T05:53:39;20.00;;;7.07;;
1715;SDS011;855;48.824;9.220;2024-01-15T05:56:07;9.47;;;5.10;;
1715;SDS011;855;48.824;9.220;2024-01-15T05:58:35;10.07;;;5.00;;
1715;SDS011;855;48.824;9.220;2024-01-15T06:01:02;13.00;;;5.70;;
1715;SDS011;855;48.824;9.220;2024-01-15T06:03:30;10.30;;;4.70;;
1715;SDS011;855;48.824;9.220;2024-01-15T06:05:57;12.80;;;4.20;;
1715;SDS011;855;48.824;9.220;2024-01-15T06:08:25;10.30;;;4.90;;
1715;SDS011;855;48.824;9.220;2024-01-15T06:10:55;17.07;;;5.50;;
1715;SDS011;855;48.824;9.220;2024-01-15T06:13:22;17.10;;;6.70;;
1715;SDS011;855;48.824;9.220;2024-01-15T06:15:49;15.43;;;5.57;;
1715;SDS011;855;48.824;9.220;2024-01-15T06:18:16;12.20;;;4.80;;
1715;SDS011;855;48.824;9.220;2024-01-15T06:20:44;15.33;;;5.00;;
1715;SDS011;855;48.824;9.220;2024-01-15T06:23:10;14.17;;;5.27;;
1715;SDS011;855;48.824;9.220;2024-01-15T06:25:39;22.93;;;7.30;;
1715;SDS011;855;48.824;9.220;2024-01-15T06:28:06;10.60;;;5.13;;
1715;SDS011;855;48.824;9.220;2024-01-15T06:30:32;19.27;;;6.00;;
1715;SDS011;855;48.824;9.220;2024-01-15T06:33:00;21.20;;;6.10;;
1715;SDS011;855;48.824;9.220;2024-01-15T06:35:28;16.03;;;5.43;;
1715;SDS011;855;48.824;9.220;2024-01-15T06:37:55;15.73;;;5.40;;
1715;SDS011;855;48.824;9.220;2024-01-15T06:40:22;18.60;;;7.83;;
1715;SDS011;855;48.824;9.220;2024-01-15T06:42:50;21.30;;;6.43;;
1715;SDS011;855;48.824;9.220;2024-01-15T06:45:17;18.70;;;6.87;;
1715;SDS011;855;48.824;9.220;2024-01-15T06:47:44;14.27;;;5.10;;
1715;SDS011;855;48.824;9.220;2024-01-15T06:50:10;15.90;;;6.70;;
1715;SDS011;855;48.824;9.220;2024-01-15T06:52:37;21.30;;;6.53;;
1715;SDS011;855;48.824;9.220;2024-01-15T06:55:04;20.70;;;7.97;;
1715;SDS011;855;48.824;9.220;2024-01-15T06:57:32;15.10;;;5.37;;
1715;SDS011;855;48.824;9.220;2024-01-15T07:00:00;15.93;;;6.17;;
1715;SDS011;855;48.824;9.220;2024-01-15T07:02:32;17.10;;;8.03;;
1715;SDS011;855;48.824;9.220;2024-01-15T07:04:59;14.93;;;6.07;;
1715;SDS011;855;48.824;9.220;2024-01-15T07:07:26;17.60;;;6.90;;
1715;SDS011;855;48.824;9.220;2024-01-15T07:09:54;12.80;;;6.37;;
1715;SDS011;855;48.824;9.220;2024-01-15T07:12:21;19.23;;;5.73;;
1715;SDS011;855;48.824;9.220;2024-01-15T07:14:48;12.00;;;6.40;;
1715;SDS011;855;48.824;9.220;2024-01-15T07:17:16;19.47;;;7.07;;
1715;SDS011;855;48.824;9.220;2024-01-15T07:19:43;13.80;;;5.53;;
1715;SDS011;855;48.824;9.220;2024-01-15T07:22:10;14.80;;;5.37;;
1715;SDS011;855;48.824;9.220;2024-01-15T07:24:37;21.83;;;5.47;;
1715;SDS011;855;48.824;9.220;2024-01-15T07:27:04;21.40;;;6.70;;
1715;SDS011;855;48.824;9.220;2024-01-15T07:29:31;14.83;;;6.37;;
1715;SDS011;855;48.824;9.220;2024-01-15T07:32:01;15.83;;;4.63;;
1715;SDS011;855;48.824;9.220;2024-01-15T07:34:29;17.47;;;5.83;;
1715;SDS011;855;48.824;9.220;2024-01-15T07:36:56;14.67;;;6.73;;
1715;SDS011;855;48.824;9.220;2024-01-15T07:39:24;15.13;;;5.93;;
1715;SDS011;855;48.824;9.220;2024-01-15T07:41:51;17.40;;;6.00;;
1715;SDS011;855;48.824;9.220;2024-01-15T07:44:18;20.00;;;6.13;;
1715;SDS011;855;48.824;9.220;2024-01-15T07:46:45;11.43;;;5.77;;
1715;SDS011;855;48.824;9.220;2024-01-15T07:49:12;14.43;;;6.13;;
1715;SDS011;855;48.824;9.220;2024-01-15T07:51:40;15.17;;;6.30;;
1715;SDS011;855;48.824;9.220;2024-01-15T07:54:08;14.87;;;5.70;;
1715;SDS011;855;48.824;9.220;2024-01-15T07:59:22;18.90;;;6.77;;
1715;SDS011;855;48.824;9.220;2024-01-15T08:01:49;15.80;;;5.80;;
1715;SDS011;855;48.824;9.220;2024-01-15T08:04:16;13.57;;;5.87;;
1715;SDS011;855;48.824;9.220;2024-01-15T08:06:45;8.97;;;5.23;;
1715;SDS011;855;48.824;9.220;2024-01-15T08:09:12;14.70;;;5.53;;
1715;SDS011;855;48.824;9.220;2024-01-15T08:11:40;17.53;;;6.90;;
1715;SDS011;855;48.824;9.220;2024-01-15T08:14:08;19.03;;;6.00;;
1715;SDS011;855;48.824;9.220;2024-01-15T08:16:35;22.80;;;6.67;;
1715;SDS011;855;48.824;9.220;2024-01-15T08:19:02;18.80;;;5.70;;
1715;SDS011;855;48.824;9.220;2024-01-15T08:21:29;18.10;;;7.10;;
1715;SDS011;855;48.824;9.220;2024-01-15T08:23:59;16.23;;;8.10;;
1715;SDS011;855;48.824;9.220;2024-01-15T08:26:27;18.60;;;6.17;;
1715;SDS011;855;48.824;9.220;2024-01-15T08:28:54;25.17;;;5.10;;
1715;SDS011;855;48.824;9.220;2024-01-15T08:31:22;14.40;;;5.77;;
1715;SDS011;855;48.824;9.220;2024-01-15T08:33:50;16.70;;;6.67;;
1715;SDS011;855;48.824;9.220;2024-01-15T08:36:18;13.70;;;6.30;;
1715;SDS011;855;48.824;9.220;2024-01-15T08:38:45;20.97;;;6.20;;
1715;SDS011;855;48.824;9.220;2024-01-15T08:41:14;17.57;;;5.77;;
1715;SDS011;855;48.824;9.220;2024-01-15T08:43:41;25.97;;;5.97;;
1715;SDS011;855;48.824;9.220;2024-01-15T08:46:08;14.10;;;5.83;;
1715;SDS011;855;48.824;9.220;2024-01-15T08:48:36;13.63;;;4.97;;
1715;SDS011;855;48.824;9.220;2024-01-15T08:51:03;11.70;;;5.70;;
1715;SDS011;855;48.824;9.220;2024-01-15T08:53:30;18.20;;;6.10;;
1715;SDS011;855;48.824;9.220;2024-01-15T08:55:57;26.53;;;6.33;;
1715;SDS011;855;48.824;9.220;2024-01-15T08:58:27;18.60;;;6.23;;
1715;SDS011;855;48.824;9.220;2024-01-15T09:00:54;15.93;;;5.00;;
1715;SDS011;855;48.824;9.220;2024-01-15T09:03:21;11.30;;;5.30;;
1715;SDS011;855;48.824;9.220;2024-01-15T09:05:47;14.93;;;4.63;;
1715;SDS011;855;48.824;9.220;2024-01-15T09:08:15;12.63;;;4.80;;
1715;SDS011;855;48.824;9.220;2024-01-15T09:10:42;11.97;;;4.03;;
1715;SDS011;855;48.824;9.220;2024-01-15T09:13:09;11.30;;;5.20;;
1715;SDS011;855;48.824;9.220;2024-01-15T09:15:37;14.63;;;4.70;;
1715;SDS011;855;48.824;9.220;2024-01-15T09:18:05;7.67;;;3.63;;
1715;SDS011;855;48.824;9.220;2024-01-15T09:20:32;15.63;;;5.10;;
1715;SDS011;855;48.824;9.220;2024-01-15T09:22:59;10.77;;;4.23;;
1715;SDS011;855;48.824;9.220;2024-01-15T09:25:27;9.30;;;4.10;;
1715;SDS011;855;48.824;9.220;2024-01-15T09:27:54;9.97;;;4.60;;
1715;SDS011;855;48.824;9.220;2024-01-15T09:30:23;9.10;;;4.57;;
1715;SDS011;855;48.824;9.220;2024-01-15T09:32:51;11.20;;;3.97;;
1715;SDS011;855;48.824;9.220;2024-01-15T09:35:18;15.40;;;4.17;;
1715;SDS011;855;48.824;9.220;2024-01-15T09:37:45;7.07;;;3.53;;
1715;SDS011;855;48.824;9.220;2024-01-15T09:40:12;13.63;;;3.93;;
1715;SDS011;855;48.824;9.220;2024-01-15T09:42:40;6.60;;;3.77;;
1715;SDS011;855;48.824;9.220;2024-01-15T09:45:08;13.57;;;4.10;;
1715;SDS011;855;48.824;9.220;2024-01-15T09:47:36;8.50;;;3.87;;
1715;SDS011;855;48.824;9.220;2024-01-15T09:50:05;11.83;;;4.73;;
1715;SDS011;855;48.824;9.220;2024-01-15T09:52:32;10.03;;;5.80;;
1715;SDS011;855;48.824;9.220;2024-01-15T09:55:02;8.63;;;4.57;;
1715;SDS011;855;48.824;9.220;2024-01-15T09:57:30;10.67;;;4.30;;
1715;SDS011;855;48.824;9.220;2024-01-15T09:59:58;9.13;;;4.53;;
1715;SDS011;855;48.824;9.220;2024-01-15T10:02:35;6.63;;;3.33;;
1715;SDS011;855;48.824;9.220;2024-01-15T10:05:04;13.73;;;4.67;;
1715;SDS011;855;48.824;9.220;2024-01-15T10:07:32;6.63;;;3.40;;
1715;SDS011;855;48.824;9.220;2024-01-15T10:10:02;12.13;;;4.60;;
1715;SDS011;855;48.824;9.220;2024-01-15T10:12:29;12.23;;;4.10;;
1715;SDS011;855;48.824;9.220;2024-01-15T10:14:56;11.93;;;4.00;;
1715;SDS011;855;48.824;9.220;2024-01-15T10:17:24;8.93;;;4.23;;
1715;SDS011;855;48.824;9.220;2024-01-15T10:19:53;6.90;;;4.20;;
1715;SDS011;855;48.824;9.220;2024-01-15T10:22:21;7.20;;;3.70;;
1715;SDS011;855;48.824;9.220;2024-01-15T10:24:51;8.60;;;3.43;;
1715;SDS011;855;48.824;9.220;2024-01-15T10:27:18;8.83;;;3.70;;
1715;SDS011;855;48.824;9.220;2024-01-15T10:29:46;9.10;;;4.23;;
1715;SDS011;855;48.824;9.220;2024-01-15T10:32:15;4.63;;;3.20;;
1715;SDS011;855;48.824;9.220;2024-01-15T10:34:42;14.30;;;3.20;;
1715;SDS011;855;48.824;9.220;2024-01-15T10:37:09;9.30;;;4.03;;
1715;SDS011;855;48.824;9.220;2024-01-15T10:39:38;9.60;;;3.90;;
1715;SDS011;855;48.824;9.220;2024-01-15T10:42:06;8.73;;;3.73;;
1715;SDS011;855;48.824;9.220;2024-01-15T10:44:35;7.80;;;3.57;;
1715;SDS011;855;48.824;9.220;2024-01-15T10:47:02;8.30;;;3.00;;
1715;SDS011;855;48.824;9.220;2024-01-15T10:49:30;6.53;;;3.10;;
1715;SDS011;855;48.824;9.220;2024-01-15T10:51:57;8.10;;;3.30;;
1715;SDS011;855;48.824;9.220;2024-01-15T10:54:25;4.50;;;2.50;;
1715;SDS011;855;48.824;9.220;2024-01-15T10:56:55;5.73;;;3.10;;
1715;SDS011;855;48.824;9.220;2024-01-15T10:59:24;7.77;;;3.50;;
1715;SDS011;855;48.824;9.220;2024-01-15T11:01:51;6.37;;;2.83;;
1715;SDS011;855;48.824;9.220;2024-01-15T11:04:19;6.20;;;3.07;;
1715;SDS011;855;48.824;9.220;2024-01-15T11:06:50;10.23;;;3.90;;
1715;SDS011;855;48.824;9.220;2024-01-15T11:09:20;9.37;;;3.63;;
1715;SDS011;855;48.824;9.220;2024-01-15T11:11:53;5.93;;;3.00;;
1715;SDS011;855;48.824;9.220;2024-01-15T11:14:39;7.17;;;2.90;;
1715;SDS011;855;48.824;9.220;2024-01-15T11:17:09;8.90;;;3.60;;
1715;SDS011;855;48.824;9.220;2024-01-15T11:19:45;8.23;;;3.40;;
1715;SDS011;855;48.824;9.220;2024-01-15T11:25:17;5.33;;;2.63;;
1715;SDS011;855;48.824;9.220;2024-01-15T11:27:47;8.93;;;3.90;;
1715;SDS011;855;48.824;9.220;2024-01-15T11:30:17;4.70;;;2.90;;
1715;SDS011;855;48.824;9.220;2024-01-15T11:32:45;9.23;;;3.50;;
1715;SDS011;855;48.824;9.220;2024-01-15T11:35:14;4.70;;;2.93;;
1715;SDS011;855;48.824;9.220;2024-01-15T11:40:38;6.27;;;3.70;;
1715;SDS011;855;48.824;9.220;2024-01-15T11:43:09;8.93;;;3.63;;
1715;SDS011;855;48.824;9.220;2024-01-15T11:45:38;9.00;;;3.67;;
1715;SDS011;855;48.824;9.220;2024-01-15T11:48:10;16.83;;;5.40;;
1715;SDS011;855;48.824;9.220;2024-01-15T11:50:41;12.73;;;4.60;;
1715;SDS011;855;48.824;9.220;2024-01-15T11:53:15;12.50;;;4.37;;
1715;SDS011;855;48.824;9.220;2024-01-15T11:55:45;9.30;;;4.40;;
1715;SDS011;855;48.824;9.220;2024-01-15T11:58:15;8.03;;;3.10;;
1715;SDS011;855;48.824;9.220;2024-01-15T12:00:44;9.73;;;4.67;;
1715;SDS011;855;48.824;9.220;2024-01-15T12:03:17;9.47;;;5.27;;
1715;SDS011;855;48.824;9.220;2024-01-15T12:05:47;11.20;;;3.80;;
1715;SDS011;855;48.824;9.220;2024-01-15T12:08:20;10.47;;;3.70;;
1715;SDS011;855;48.824;9.220;2024-01-15T12:10:48;8.30;;;3.60;;
1715;SDS011;855;48.824;9.220;2024-01-15T12:13:20;12.23;;;3.80;;
1715;SDS011;855;48.824;9.220;2024-01-15T12:15:47;6.13;;;3.47;;
1715;SDS011;855;48.824;9.220;2024-01-15T12:18:17;6.33;;;4.13;;
1715;SDS011;855;48.824;9.220;2024-01-15T12:20:48;9.70;;;3.83;;
1715;SDS011;855;48.824;9.220;2024-01-15T12:23:15;11.00;;;3.97;;
1715;SDS011;855;48.824;9.220;2024-01-15T12:25:43;12.40;;;4.27;;
1715;SDS011;855;48.824;9.220;2024-01-15T12:28:10;9.17;;;3.23;;
1715;SDS011;855;48.824;9.220;2024-01-15T12:30:39;8.73;;;4.00;;
1715;SDS011;855;48.824;9.220;2024-01-15T12:33:07;7.47;;;3.20;;
1715;SDS011;855;48.824;9.220;2024-01-15T12:35:34;8.70;;;3.40;;
1715;SDS011;855;48.824;9.220;2024-01-15T12:38:02;8.70;;;3.53;;
1715;SDS011;855;48.824;9.220;2024-01-15T12:40:30;7.20;;;3.33;;
1715;SDS011;855;48.824;9.220;2024-01-15T12:42:59;9.40;;;4.00;;
1715;SDS011;855;48.824;9.220;2024-01-15T12:45:31;10.00;;;3.23;;
1715;SDS011;855;48.824;9.220;2024-01-15T12:47:59;4.80;;;3.80;;
1715;SDS011;855;48.824;9.220;2024-01-15T12:50:26;8.30;;;4.07;;
1715;SDS011;855;48.824;9.220;2024-01-15T12:52:53;8.30;;;3.60;;
1715;SDS011;855;48.824;9.220;2024-01-15T12:55:21;7.53;;;2.90;;
1715;SDS011;855;48.824;9.220;2024-01-15T12:57:49;12.73;;;4.27;;
1715;SDS011;855;48.824;9.220;2024-01-15T13:00:19;12.77;;;4.27;;
1715;SDS011;855;48.824;9.220;2024-01-15T13:02:46;13.20;;;4.10;;
1715;SDS011;855;48.824;9.220;2024-01-15T13:05:16;8.87;;;4.87;;
1715;SDS011;855;48.824;9.220;2024-01-15T13:07:43;10.33;;;4.13;;
1715;SDS011;855;48.824;9.220;2024-01-15T13:10:11;6.20;;;2.80;;
1715;SDS011;855;48.824;9.220;2024-01-15T13:12:40;11.27;;;3.50;;
1715;SDS011;855;48.824;9.220;2024-01-15T13:15:08;12.20;;;4.63;;
1715;SDS011;855;48.824;9.220;2024-01-15T13:17:37;11.87;;;3.57;;
1715;SDS011;855;48.824;9.220;2024-01-15T13:20:04;7.93;;;3.40;;
1715;SDS011;855;48.824;9.220;2024-01-15T13:22:34;10.13;;;3.93;;
1715;SDS011;855;48.824;9.220;2024-01-15T13:25:04;7.30;;;3.00;;
1715;SDS011;855;48.824;9.220;2024-01-15T13:27:34;8.00;;;3.53;;
1715;SDS011;855;48.824;9.220;2024-01-15T13:30:02;10.40;;;3.93;;
1715;SDS011;855;48.824;9.220;2024-01-15T13:32:31;9.97;;;3.50;;
1715;SDS011;855;48.824;9.220;2024-01-15T13:34:59;7.97;;;3.10;;
1715;SDS011;855;48.824;9.220;2024-01-15T13:37:28;11.70;;;3.60;;
1715;SDS011;855;48.824;9.220;2024-01-15T13:39:56;10.17;;;3.40;;
1715;SDS011;855;48.824;9.220;2024-01-15T13:42:23;11.77;;;3.60;;
1715;SDS011;855;48.824;9.220;2024-01-15T13:44:52;6.93;;;3.77;;
1715;SDS011;855;48.824;9.220;2024-01-15T13:47:22;4.17;;;2.60;;
1715;SDS011;855;48.824;9.220;2024-01-15T13:49:50;10.90;;;3.83;;
1715;SDS011;855;48.824;9.220;2024-01-15T13:52:18;6.87;;;2.73;;
1715;SDS011;855;48.824;9.220;2024-01-15T13:54:44;6.30;;;3.03;;
1715;SDS011;855;48.824;9.220;2024-01-15T13:57:15;4.30;;;1.97;;
1715;SDS011;855;48.824;9.220;2024-01-15T13:59:44;6.37;;;2.70;;
1715;SDS011;855;48.824;9.220;2024-01-15T14:02:11;11.73;;;3.07;;
1715;SDS011;855;48.824;9.220;2024-01-15T14:04:39;10.60;;;3.67;;
1715;SDS011;855;48.824;9.220;2024-01-15T14:07:06;6.73;;;3.00;;
1715;SDS011;855;48.824;9.220;2024-01-15T14:09:33;5.10;;;3.30;;
1715;SDS011;855;48.824;9.220;2024-01-15T14:12:00;7.80;;;2.77;;
1715;SDS011;855;48.824;9.220;2024-01-15T14:14:29;7.03;;;2.43;;
1715;SDS011;855;48.824;9.220;2024-01-15T14:16:55;7.83;;;3.30;;
1715;SDS011;855;48.824;9.220;2024-01-15T14:19:22;3.47;;;2.60;;
1715;SDS011;855;48.824;9.220;2024-01-15T14:21:50;5.47;;;3.43;;
1715;SDS011;855;48.824;9.220;2024-01-15T14:24:18;9.73;;;3.53;;
1715;SDS011;855;48.824;9.220;2024-01-15T14:26:45;7.30;;;3.23;;
1715;SDS011;855;48.824;9.220;2024-01-15T14:29:12;6.83;;;3.10;;
1715;SDS011;855;48.824;9.220;2024-01-15T14:31:42;9.50;;;3.85;;
1715;SDS011;855;48.824;9.220;2024-01-15T14:34:18;7.57;;;3.63;;
1715;SDS011;855;48.824;9.220;2024-01-15T14:36:48;6.10;;;2.93;;
1715;SDS011;855;48.824;9.220;2024-01-15T14:39:18;10.50;;;4.40;;
1715;SDS011;855;48.824;9.220;2024-01-15T14:41:45;8.97;;;5.27;;
1715;SDS011;855;48.824;9.220;2024-01-15T14:44:12;7.20;;;3.80;;
1715;SDS011;855;48.824;9.220;2024-01-15T14:46:40;17.30;;;5.87;;
1715;SDS011;855;48.824;9.220;2024-01-15T14:49:07;10.63;;;5.00;;
1715;SDS011;855;48.824;9.220;2024-01-15T14:51:35;9.23;;;4.97;;
1715;SDS011;855;48.824;9.220;2024-01-15T14:54:02;14.73;;;5.37;;
1715;SDS011;855;48.824;9.220;2024-01-15T14:56:32;12.30;;;5.63;;
1715;SDS011;855;48.824;9.220;2024-01-15T14:58:59;9.17;;;4.83;;
1715;SDS011;855;48.824;9.220;2024-01-15T15:01:26;17.47;;;5.00;;
1715;SDS011;855;48.824;9.220;2024-01-15T15:03:56;13.43;;;5.57;;
1715;SDS011;855;48.824;9.220;2024-01-15T15:06:23;13.27;;;5.73;;
1715;SDS011;855;48.824;9.220;2024-01-15T15:08:52;13.23;;;6.20;;
1715;SDS011;855;48.824;9.220;2024-01-15T15:11:21;12.70;;;5.90;;
1715;SDS011;855;48.824;9.220;2024-01-15T15:13:49;13.20;;;6.40;;
1715;SDS011;855;48.824;9.220;2024-01-15T15:16:19;12.03;;;5.90;;
1715;SDS011;855;48.824;9.220;2024-01-15T15:18:46;14.53;;;6.60;;
1715;SDS011;855;48.824;9.220;2024-01-15T15:21:16;14.40;;;6.80;;
1715;SDS011;855;48.824;9.220;2024-01-15T15:23:43;13.20;;;5.60;;
1715;SDS011;855;48.824;9.220;2024-01-15T15:26:19;10.03;;;6.10;;
1715;SDS011;855;48.824;9.220;2024-01-15T15:28:48;13.93;;;6.33;;
1715;SDS011;855;48.824;9.220;2024-01-15T15:31:18;13.43;;;5.70;;
1715;SDS011;855;48.824;9.220;2024-01-15T15:33:47;18.53;;;5.73;;